Terminal Aerodrome Forecast
Issued by NWS Charleston, WV

Home | Current Version | Previous Version | Text Only | Print | Product List | Glossary On
Versions: 1 2 3 4 5 6 7 8 9 10 11 12 13 14 15 16 17 18 19 20 21 22 23 24 25 26
147
FTUS41 KRLX 211740 AAB
TAFBKW
TAF AMD
KBKW 211740Z 2118/2218 23010G25KT P6SM VCTS BKN040CB
     FM212100 25008G16KT 6SM SHRA BKN035
     FM220200 VRB02KT 4SM SHRA BKN015
     FM220500 VRB03KT 3SM BR BKN022
     FM221000 17006KT 5SM BR BKN009
     FM221400 20008KT 4SM +SHRA BKN025=

USA.gov is the U.S. government's official web portal to all federal, state and local government web resources and services.